createdAt,value
2017-05-21T00:00:48.619Z,8.38
2017-05-21T00:03:15.461Z,8.04
2017-05-21T00:05:41.832Z,8.76
2017-05-21T00:08:09.767Z,8.76
2017-05-21T00:10:36.777Z,8.98
2017-05-21T00:13:03.911Z,9.40
2017-05-21T00:15:30.875Z,9.28
2017-05-21T00:17:58.057Z,8.94
2017-05-21T00:20:24.577Z,9.50
2017-05-21T00:22:51.066Z,8.20
2017-05-21T00:25:17.434Z,8.58
2017-05-21T00:27:43.789Z,8.90
2017-05-21T00:30:10.137Z,11.20
2017-05-21T00:32:36.469Z,8.68
2017-05-21T00:35:02.853Z,6.90
2017-05-21T00:37:29.233Z,7.30
2017-05-21T00:39:55.580Z,6.48
2017-05-21T00:42:22.716Z,8.04
2017-05-21T00:44:49.792Z,8.12
2017-05-21T00:47:16.304Z,8.58
2017-05-21T00:49:43.355Z,8.92
2017-05-21T00:52:09.690Z,9.80
2017-05-21T00:54:36.044Z,9.06
2017-05-21T00:57:02.407Z,8.74
2017-05-21T00:59:28.804Z,7.42
2017-05-21T01:01:55.181Z,9.82
2017-05-21T01:04:21.543Z,8.06
2017-05-21T01:06:47.879Z,7.72
2017-05-21T01:09:14.215Z,7.68
2017-05-21T01:11:40.564Z,10.06
2017-05-21T01:14:06.991Z,8.56
2017-05-21T01:16:33.340Z,9.28
2017-05-21T01:18:59.698Z,8.08
2017-05-21T01:21:26.854Z,7.48
2017-05-21T01:23:53.261Z,8.12
2017-05-21T01:26:19.625Z,8.88
2017-05-21T01:28:45.959Z,8.28
2017-05-21T01:31:12.326Z,6.98
2017-05-21T01:33:38.690Z,8.00
2017-05-21T01:36:05.079Z,8.94
2017-05-21T01:38:31.445Z,7.78
2017-05-21T01:40:57.827Z,8.56
2017-05-21T01:43:24.226Z,10.30
2017-05-21T01:45:50.633Z,9.88
2017-05-21T01:48:17.038Z,10.06
2017-05-21T01:50:43.469Z,7.84
2017-05-21T01:53:09.814Z,9.76
2017-05-21T01:55:36.170Z,8.68
2017-05-21T01:58:02.520Z,8.46
2017-05-21T02:00:28.863Z,9.60
2017-05-21T02:02:55.270Z,7.64
2017-05-21T02:05:21.621Z,7.06
2017-05-21T02:07:47.966Z,6.52
2017-05-21T02:10:14.328Z,6.82
2017-05-21T02:12:40.680Z,7.26
2017-05-21T02:15:07.046Z,12.02
2017-05-21T02:17:33.989Z,7.68
2017-05-21T02:20:00.338Z,7.98
2017-05-21T02:22:26.690Z,8.04
2017-05-21T02:24:53.054Z,8.18
2017-05-21T02:27:19.517Z,8.04
2017-05-21T02:29:45.892Z,16.76
2017-05-21T02:32:12.242Z,15.38
2017-05-21T02:34:38.595Z,10.14
2017-05-21T02:37:04.941Z,10.16
2017-05-21T02:39:32.073Z,13.14
2017-05-21T02:41:58.435Z,18.58
2017-05-21T02:44:24.818Z,9.96
2017-05-21T02:46:51.158Z,10.48
2017-05-21T02:49:17.515Z,8.32
2017-05-21T02:51:43.882Z,9.86
2017-05-21T02:54:10.212Z,6.08
2017-05-21T02:56:36.608Z,8.62
2017-05-21T02:59:02.993Z,7.12
2017-05-21T03:01:29.349Z,6.30
2017-05-21T03:03:55.679Z,7.60
2017-05-21T03:06:22.045Z,7.24
2017-05-21T03:08:48.503Z,7.28
2017-05-21T03:11:15.159Z,7.84
2017-05-21T03:13:41.501Z,7.78
2017-05-21T03:16:07.839Z,8.68
2017-05-21T03:18:34.203Z,8.90
2017-05-21T03:21:00.551Z,9.64
2017-05-21T03:23:26.910Z,12.68
2017-05-21T03:25:53.289Z,27.42
2017-05-21T03:28:19.650Z,11.74
2017-05-21T03:30:45.982Z,13.64
2017-05-21T03:33:12.358Z,10.14
2017-05-21T03:35:39.178Z,8.44
2017-05-21T03:38:05.553Z,10.60
2017-05-21T03:40:31.904Z,14.64
2017-05-21T03:42:58.268Z,14.00
2017-05-21T03:45:24.721Z,11.64
2017-05-21T03:47:51.071Z,10.20
2017-05-21T03:50:17.414Z,7.92
2017-05-21T03:52:43.773Z,10.54
2017-05-21T03:55:10.133Z,10.36
2017-05-21T03:57:36.518Z,32.94
2017-05-21T04:00:02.923Z,12.30
2017-05-21T04:02:29.426Z,7.72
2017-05-21T04:04:55.822Z,12.30
2017-05-21T04:07:22.173Z,11.10
2017-05-21T04:09:48.547Z,7.06
2017-05-21T04:12:14.913Z,11.58
2017-05-21T04:14:41.256Z,13.52
2017-05-21T04:17:07.735Z,10.10
2017-05-21T04:19:34.085Z,10.24
2017-05-21T04:22:00.437Z,7.22
2017-05-21T04:24:26.790Z,7.86
2017-05-21T04:26:53.153Z,7.72
2017-05-21T04:29:19.542Z,7.88
2017-05-21T04:31:45.918Z,8.14
2017-05-21T04:34:12.259Z,7.98
2017-05-21T04:36:38.911Z,7.42
2017-05-21T04:39:05.251Z,7.30
2017-05-21T04:41:31.672Z,8.26
2017-05-21T04:43:58.019Z,9.14
2017-05-21T04:46:24.360Z,7.04
2017-05-21T04:48:50.711Z,7.64
2017-05-21T04:51:17.046Z,8.98
2017-05-21T04:53:43.405Z,7.32
2017-05-21T04:56:09.743Z,7.88
2017-05-21T04:58:36.081Z,7.66
2017-05-21T05:01:02.447Z,7.42
2017-05-21T05:03:28.793Z,6.04
2017-05-21T05:05:55.186Z,5.72
2017-05-21T05:08:21.553Z,6.94
2017-05-21T05:10:47.958Z,6.96
2017-05-21T05:13:14.295Z,6.94
2017-05-21T05:15:40.664Z,5.84
2017-05-21T05:18:07.026Z,7.06
2017-05-21T05:20:33.431Z,6.90
2017-05-21T05:22:59.782Z,6.40
2017-05-21T05:25:26.224Z,8.42
2017-05-21T05:27:52.555Z,7.58
2017-05-21T05:30:18.874Z,8.16
2017-05-21T05:32:45.218Z,7.04
2017-05-21T05:35:11.587Z,7.42
2017-05-21T05:37:37.954Z,7.18
2017-05-21T05:40:04.302Z,6.22
2017-05-21T05:42:30.634Z,6.90
2017-05-21T05:44:57.024Z,5.76
2017-05-21T05:47:23.356Z,6.26
2017-05-21T05:49:49.714Z,5.60
2017-05-21T05:52:17.186Z,6.06
2017-05-21T05:54:43.535Z,5.26
2017-05-21T05:57:09.940Z,5.46
2017-05-21T05:59:36.306Z,5.30
2017-05-21T06:02:02.664Z,6.18
2017-05-21T06:04:29.011Z,4.92
2017-05-21T06:06:55.376Z,5.34
2017-05-21T06:09:21.719Z,6.14
2017-05-21T06:11:48.071Z,5.10
2017-05-21T06:14:14.445Z,4.80
2017-05-21T06:16:40.797Z,5.58
2017-05-21T06:19:07.130Z,5.00
2017-05-21T06:21:33.483Z,4.98
2017-05-21T06:23:59.871Z,8.68
2017-05-21T06:26:26.254Z,5.26
2017-05-21T06:28:52.615Z,5.50
2017-05-21T06:31:18.985Z,5.62
2017-05-21T06:33:45.343Z,5.30
2017-05-21T06:36:11.718Z,4.52
2017-05-21T06:38:38.082Z,3.52
2017-05-21T06:41:04.453Z,4.22
2017-05-21T06:43:30.824Z,3.82
2017-05-21T06:45:57.176Z,3.60
2017-05-21T06:48:23.524Z,3.92
2017-05-21T06:50:49.921Z,5.40
2017-05-21T06:53:16.305Z,4.60
2017-05-21T06:55:42.654Z,4.46
2017-05-21T06:58:09.017Z,3.40
2017-05-21T07:00:35.379Z,3.74
2017-05-21T07:03:01.760Z,4.06
2017-05-21T07:05:28.120Z,4.78
2017-05-21T07:07:54.505Z,3.70
2017-05-21T07:10:20.874Z,4.40
2017-05-21T07:12:47.257Z,4.30
2017-05-21T07:15:13.606Z,3.74
2017-05-21T07:17:41.240Z,6.28
2017-05-21T07:20:07.560Z,4.82
2017-05-21T07:22:33.890Z,5.80
2017-05-21T07:25:00.221Z,3.60
2017-05-21T07:27:26.564Z,3.60
2017-05-21T07:29:52.905Z,3.42
2017-05-21T07:32:19.249Z,3.44
2017-05-21T07:34:45.577Z,3.20
2017-05-21T07:37:11.911Z,3.62
2017-05-21T07:39:38.251Z,4.20
2017-05-21T07:42:04.593Z,4.38
2017-05-21T07:44:30.937Z,4.66
2017-05-21T07:46:57.293Z,4.42
2017-05-21T07:49:23.643Z,3.54
2017-05-21T07:51:50.001Z,3.58
2017-05-21T07:54:16.323Z,4.12
2017-05-21T07:56:42.675Z,3.84
2017-05-21T07:59:09.046Z,3.18
2017-05-21T08:01:35.367Z,4.14
2017-05-21T08:04:01.700Z,3.60
2017-05-21T08:06:28.067Z,3.42
2017-05-21T08:08:54.433Z,3.54
2017-05-21T08:11:20.818Z,3.20
2017-05-21T08:13:47.168Z,2.96
2017-05-21T08:16:13.543Z,3.10
2017-05-21T08:18:39.898Z,2.64
2017-05-21T08:21:06.230Z,3.50
2017-05-21T08:23:32.573Z,3.26
2017-05-21T08:25:58.935Z,2.92
2017-05-21T08:28:25.282Z,2.96
2017-05-21T08:30:51.627Z,2.40
2017-05-21T08:33:18.423Z,2.06
2017-05-21T08:35:48.749Z,1.44
2017-05-21T08:38:15.859Z,1.52
2017-05-21T08:40:42.223Z,2.14
2017-05-21T08:43:08.620Z,1.70
2017-05-21T08:45:35.014Z,4.16
2017-05-21T08:48:01.366Z,2.32
2017-05-21T08:50:27.734Z,2.86
2017-05-21T08:52:54.971Z,3.08
2017-05-21T08:55:22.197Z,4.30
2017-05-21T08:57:50.254Z,5.18
2017-05-21T09:00:19.571Z,2.00
2017-05-21T09:02:48.713Z,4.12
2017-05-21T09:05:15.993Z,2.80
2017-05-21T09:07:43.635Z,1.68
2017-05-21T09:10:10.864Z,1.30
2017-05-21T09:12:38.308Z,1.52
2017-05-21T09:15:06.314Z,1.92
2017-05-21T09:17:34.490Z,1.86
2017-05-21T09:20:00.895Z,2.90
2017-05-21T09:22:27.245Z,1.52
2017-05-21T09:24:53.577Z,1.16
2017-05-21T09:27:19.932Z,3.10
2017-05-21T09:29:46.315Z,1.96
2017-05-21T09:32:12.666Z,2.86
2017-05-21T09:34:38.994Z,2.04
2017-05-21T09:37:05.361Z,2.34
2017-05-21T09:39:31.744Z,3.36
2017-05-21T09:41:58.092Z,1.48
2017-05-21T09:44:24.444Z,1.44
2017-05-21T09:46:50.807Z,2.82
2017-05-21T09:49:17.164Z,1.22
2017-05-21T09:51:43.486Z,2.40
2017-05-21T09:54:09.849Z,1.22
2017-05-21T09:56:36.228Z,1.46
2017-05-21T09:59:02.625Z,1.94
2017-05-21T10:01:29.005Z,2.20
2017-05-21T10:03:55.363Z,1.96
2017-05-21T10:06:21.768Z,2.24
2017-05-21T10:08:48.126Z,1.28
2017-05-21T10:11:14.482Z,1.50
2017-05-21T10:13:40.849Z,3.42
2017-05-21T10:16:07.187Z,2.62
2017-05-21T10:18:33.560Z,2.28
2017-05-21T10:20:59.925Z,0.96
2017-05-21T10:23:26.321Z,1.42
2017-05-21T10:25:52.690Z,1.50
2017-05-21T10:28:19.065Z,1.30
2017-05-21T10:30:45.424Z,2.40
2017-05-21T10:33:11.792Z,1.48
2017-05-21T10:35:38.136Z,1.22
2017-05-21T10:38:04.465Z,3.12
2017-05-21T10:40:30.888Z,1.56
2017-05-21T10:42:57.222Z,3.12
2017-05-21T10:45:23.597Z,1.64
2017-05-21T10:47:49.948Z,2.58
2017-05-21T10:50:16.321Z,1.62
2017-05-21T10:52:42.653Z,1.48
2017-05-21T10:55:09.001Z,3.06
2017-05-21T10:57:35.350Z,1.12
2017-05-21T11:00:01.703Z,1.82
2017-05-21T11:02:28.072Z,1.30
2017-05-21T11:04:54.440Z,3.22
2017-05-21T11:07:20.829Z,0.90
2017-05-21T11:09:47.173Z,1.10
2017-05-21T11:12:13.544Z,1.62
2017-05-21T11:14:39.869Z,1.22
2017-05-21T11:17:07.465Z,2.10
2017-05-21T11:19:35.500Z,4.04
2017-05-21T11:22:01.859Z,3.94
2017-05-21T11:24:28.202Z,1.36
2017-05-21T11:26:54.605Z,1.30
2017-05-21T11:29:20.960Z,1.18
2017-05-21T11:31:47.302Z,1.16
2017-05-21T11:34:13.667Z,1.30
2017-05-21T11:36:40.052Z,2.62
2017-05-21T11:39:06.375Z,2.40
2017-05-21T11:41:32.721Z,1.36
2017-05-21T11:43:59.054Z,1.02
2017-05-21T11:46:25.399Z,1.92
2017-05-21T11:48:51.749Z,1.62
2017-05-21T11:51:18.212Z,1.88
2017-05-21T11:53:44.572Z,1.20
2017-05-21T11:56:11.087Z,2.56
2017-05-21T11:58:37.476Z,1.38
2017-05-21T12:01:04.311Z,1.30
2017-05-21T12:03:31.369Z,2.44
2017-05-21T12:05:57.752Z,1.04
2017-05-21T12:08:24.082Z,1.22
2017-05-21T12:10:50.684Z,1.46
2017-05-21T12:13:17.030Z,1.34
2017-05-21T12:15:43.353Z,1.06
2017-05-21T12:18:09.671Z,1.02
2017-05-21T12:20:36.336Z,1.20
2017-05-21T12:23:02.645Z,1.20
2017-05-21T12:25:28.984Z,2.48
2017-05-21T12:27:55.346Z,1.52
2017-05-21T12:30:21.765Z,1.02
2017-05-21T12:32:48.073Z,1.02
2017-05-21T12:35:14.424Z,1.14
2017-05-21T12:37:40.790Z,1.20
2017-05-21T12:40:07.105Z,1.34
2017-05-21T12:42:34.128Z,3.76
2017-05-21T12:45:00.522Z,1.82
2017-05-21T12:47:27.090Z,1.26
2017-05-21T12:49:53.589Z,1.98
2017-05-21T12:52:19.949Z,1.16
2017-05-21T12:54:47.028Z,1.22
2017-05-21T12:57:13.329Z,2.28
2017-05-21T12:59:39.821Z,0.90
2017-05-21T13:02:06.407Z,1.60
2017-05-21T13:04:32.835Z,1.86
2017-05-21T13:06:59.241Z,2.20
2017-05-21T13:09:25.720Z,2.70
2017-05-21T13:11:52.124Z,3.44
2017-05-21T13:14:19.188Z,2.30
2017-05-21T13:16:45.494Z,1.60
2017-05-21T13:19:12.457Z,1.42
2017-05-21T13:21:38.812Z,1.64
2017-05-21T13:24:05.180Z,2.20
2017-05-21T13:26:31.598Z,1.58
2017-05-21T13:28:59.139Z,1.42
2017-05-21T13:31:25.474Z,1.10
2017-05-21T13:33:51.986Z,1.68
2017-05-21T13:36:18.541Z,1.74
2017-05-21T13:38:44.878Z,2.34
2017-05-21T13:41:11.197Z,0.88
2017-05-21T13:43:38.178Z,1.72
2017-05-21T13:46:05.293Z,1.20
2017-05-21T13:48:31.826Z,1.20
2017-05-21T13:50:58.632Z,1.40
2017-05-21T13:53:24.949Z,1.58
2017-05-21T13:55:51.426Z,0.94
2017-05-21T13:58:18.064Z,1.82
2017-05-21T14:00:44.414Z,1.66
2017-05-21T14:03:10.749Z,1.32
2017-05-21T14:05:37.621Z,2.30
2017-05-21T14:08:04.101Z,1.52
2017-05-21T14:10:30.450Z,1.28
2017-05-21T14:12:57.007Z,1.78
2017-05-21T14:15:23.678Z,1.20
2017-05-21T14:17:50.015Z,3.76
2017-05-21T14:20:16.506Z,1.62
2017-05-21T14:22:43.359Z,1.06
2017-05-21T14:25:09.689Z,1.12
2017-05-21T14:27:36.027Z,1.62
2017-05-21T14:30:02.553Z,1.44
2017-05-21T14:32:29.275Z,1.14
2017-05-21T14:34:55.626Z,2.02
2017-05-21T14:37:22.139Z,1.78
2017-05-21T14:39:48.882Z,1.68
2017-05-21T14:42:15.392Z,2.50
2017-05-21T14:44:41.721Z,1.70
2017-05-21T14:47:08.081Z,1.84
2017-05-21T14:49:34.400Z,1.24
2017-05-21T14:52:00.737Z,1.00
2017-05-21T14:54:27.077Z,3.16
2017-05-21T14:56:53.411Z,2.24
2017-05-21T14:59:19.734Z,1.34
2017-05-21T15:01:46.081Z,4.22
2017-05-21T15:04:12.408Z,2.10
2017-05-21T15:06:39.261Z,1.38
2017-05-21T15:09:05.582Z,1.50
2017-05-21T15:11:31.950Z,2.06
2017-05-21T15:13:58.338Z,2.40
2017-05-21T15:16:24.697Z,1.88
2017-05-21T15:18:51.109Z,1.34
2017-05-21T15:21:17.469Z,1.72
2017-05-21T15:23:43.799Z,1.88
2017-05-21T15:26:10.194Z,1.28
2017-05-21T15:28:36.500Z,1.48
2017-05-21T15:31:02.843Z,2.24
2017-05-21T15:33:29.167Z,1.18
2017-05-21T15:35:55.487Z,1.50
2017-05-21T15:38:21.912Z,1.24
2017-05-21T15:40:48.279Z,2.20
2017-05-21T15:43:14.592Z,1.28
2017-05-21T15:45:40.976Z,1.26
2017-05-21T15:48:07.325Z,1.48
2017-05-21T15:50:33.694Z,1.44
2017-05-21T15:53:00.051Z,2.56
2017-05-21T15:55:26.400Z,2.76
2017-05-21T15:57:52.745Z,1.88
2017-05-21T16:00:19.088Z,1.38
2017-05-21T16:02:45.999Z,1.16
2017-05-21T16:05:12.349Z,1.58
2017-05-21T16:07:38.710Z,1.96
2017-05-21T16:10:05.052Z,2.04
2017-05-21T16:12:31.372Z,1.40
2017-05-21T16:14:57.701Z,2.30
2017-05-21T16:17:24.010Z,2.52
2017-05-21T16:19:50.386Z,2.60
2017-05-21T16:22:16.750Z,1.60
2017-05-21T16:24:43.071Z,1.94
2017-05-21T16:27:09.502Z,3.04
2017-05-21T16:29:35.864Z,1.72
2017-05-21T16:32:02.220Z,2.54
2017-05-21T16:34:28.532Z,1.68
2017-05-21T16:36:54.865Z,1.68
2017-05-21T16:39:21.254Z,1.60
2017-05-21T16:41:47.694Z,1.42
2017-05-21T16:44:14.056Z,1.82
2017-05-21T16:46:40.390Z,1.60
2017-05-21T16:49:06.729Z,1.30
2017-05-21T16:51:33.056Z,2.14
2017-05-21T16:53:59.371Z,2.24
2017-05-21T16:56:26.128Z,3.08
2017-05-21T16:58:52.489Z,2.62
2017-05-21T17:01:19.010Z,1.70
2017-05-21T17:03:45.334Z,2.52
2017-05-21T17:06:11.667Z,2.10
2017-05-21T17:08:38.072Z,2.48
2017-05-21T17:11:04.437Z,2.06
2017-05-21T17:13:30.763Z,2.40
2017-05-21T17:15:57.134Z,1.64
2017-05-21T17:18:23.504Z,1.88
2017-05-21T17:20:50.312Z,2.00
2017-05-21T17:23:16.669Z,3.64
2017-05-21T17:25:43.156Z,1.70
2017-05-21T17:28:09.531Z,3.38
2017-05-21T17:30:35.908Z,2.96
2017-05-21T17:33:02.287Z,5.84
2017-05-21T17:35:28.659Z,2.96
2017-05-21T17:37:55.016Z,1.80
2017-05-21T17:40:21.368Z,1.80
2017-05-21T17:42:47.733Z,2.70
2017-05-21T17:45:14.099Z,1.58
2017-05-21T17:47:40.470Z,4.36
2017-05-21T17:50:06.859Z,3.88
2017-05-21T17:52:33.190Z,1.74
2017-05-21T17:54:59.534Z,3.12
2017-05-21T17:57:25.987Z,3.00
2017-05-21T17:59:52.350Z,2.06
2017-05-21T18:02:18.698Z,1.70
2017-05-21T18:04:45.112Z,3.08
2017-05-21T18:07:11.446Z,2.44
2017-05-21T18:09:37.885Z,2.98
2017-05-21T18:12:04.292Z,3.86
2017-05-21T18:14:30.813Z,2.80
2017-05-21T18:16:57.218Z,2.60
2017-05-21T18:19:23.611Z,2.90
2017-05-21T18:21:50.021Z,3.30
2017-05-21T18:24:16.416Z,3.14
2017-05-21T18:26:43.115Z,2.22
2017-05-21T18:29:09.444Z,2.76
2017-05-21T18:31:35.852Z,4.26
2017-05-21T18:34:02.195Z,2.66
2017-05-21T18:36:28.535Z,3.42
2017-05-21T18:38:54.899Z,3.52
2017-05-21T18:41:21.302Z,2.72
2017-05-21T18:43:47.688Z,2.10
2017-05-21T18:46:14.038Z,2.70
2017-05-21T18:48:40.451Z,2.58
2017-05-21T18:51:06.843Z,2.96
2017-05-21T18:53:33.179Z,2.22
2017-05-21T18:55:59.554Z,2.70
2017-05-21T18:58:25.997Z,5.48
2017-05-21T19:00:52.381Z,2.60
2017-05-21T19:03:19.322Z,2.42
2017-05-21T19:05:46.047Z,2.62
2017-05-21T19:08:12.489Z,2.58
2017-05-21T19:10:39.109Z,2.62
2017-05-21T19:13:05.568Z,6.10
2017-05-21T19:15:31.968Z,2.24
2017-05-21T19:17:58.512Z,3.66
2017-05-21T19:20:24.888Z,2.58
2017-05-21T19:22:52.977Z,2.48
2017-05-21T19:25:19.857Z,2.18
2017-05-21T19:27:46.215Z,3.00
2017-05-21T19:30:12.570Z,2.86
2017-05-21T19:32:38.940Z,4.10
2017-05-21T19:35:05.319Z,3.28
2017-05-21T19:37:31.706Z,3.44
2017-05-21T19:39:58.045Z,3.00
2017-05-21T19:42:24.383Z,4.00
2017-05-21T19:44:50.742Z,2.80
2017-05-21T19:47:17.096Z,3.10
2017-05-21T19:49:43.470Z,2.52
2017-05-21T19:52:09.847Z,2.96
2017-05-21T19:54:36.252Z,2.82
2017-05-21T19:57:02.620Z,2.92
2017-05-21T19:59:29.389Z,2.80
2017-05-21T20:01:55.733Z,3.10
2017-05-21T20:04:22.077Z,2.60
2017-05-21T20:06:48.407Z,2.94
2017-05-21T20:09:14.739Z,2.66
2017-05-21T20:11:41.045Z,3.32
2017-05-21T20:14:07.439Z,3.12
2017-05-21T20:16:34.219Z,3.34
2017-05-21T20:19:00.617Z,3.32
2017-05-21T20:21:27.023Z,3.26
2017-05-21T20:23:53.422Z,5.00
2017-05-21T20:26:19.908Z,3.38
2017-05-21T20:28:46.302Z,5.34
2017-05-21T20:31:13.235Z,3.06
2017-05-21T20:33:39.577Z,3.14
2017-05-21T20:36:05.969Z,3.98
2017-05-21T20:38:32.333Z,4.08
2017-05-21T20:40:59.039Z,3.60
2017-05-21T20:43:25.416Z,3.82
2017-05-21T20:45:51.808Z,4.38
2017-05-21T20:48:18.208Z,3.88
2017-05-21T20:50:45.240Z,4.26
2017-05-21T20:53:11.570Z,3.82
2017-05-21T20:55:37.961Z,5.64
2017-05-21T20:58:04.313Z,3.84
2017-05-21T21:00:30.684Z,6.48
2017-05-21T21:02:57.046Z,3.68
2017-05-21T21:05:23.432Z,4.54
2017-05-21T21:07:51.108Z,4.10
2017-05-21T21:10:17.532Z,6.46
2017-05-21T21:12:43.878Z,3.80
2017-05-21T21:15:10.689Z,4.76
2017-05-21T21:17:37.057Z,5.66
2017-05-21T21:20:03.520Z,3.92
2017-05-21T21:22:29.910Z,4.18
2017-05-21T21:24:56.751Z,4.02
2017-05-21T21:27:23.272Z,4.68
2017-05-21T21:29:49.635Z,6.38
2017-05-21T21:32:16.025Z,3.80
2017-05-21T21:34:42.385Z,4.78
2017-05-21T21:37:08.740Z,4.12
2017-05-21T21:39:35.134Z,4.12
2017-05-21T21:42:01.466Z,5.84
2017-05-21T21:44:27.814Z,4.06
2017-05-21T21:46:54.138Z,5.50
2017-05-21T21:49:20.523Z,3.98
2017-05-21T21:51:46.873Z,3.44
2017-05-21T21:54:13.244Z,3.70
2017-05-21T21:56:39.610Z,3.90
2017-05-21T21:59:05.964Z,4.14
2017-05-21T22:01:32.297Z,4.26
2017-05-21T22:03:58.665Z,4.00
2017-05-21T22:06:25.619Z,4.24
2017-05-21T22:08:52.041Z,5.08
2017-05-21T22:11:18.363Z,4.00
2017-05-21T22:13:44.706Z,4.12
2017-05-21T22:16:11.059Z,4.56
2017-05-21T22:18:37.388Z,4.28
2017-05-21T22:21:03.947Z,3.86
2017-05-21T22:23:30.284Z,3.58
2017-05-21T22:26:00.942Z,4.38
2017-05-21T22:28:28.085Z,5.40
2017-05-21T22:30:54.502Z,6.06
2017-05-21T22:33:20.835Z,5.08
2017-05-21T22:35:47.193Z,5.02
2017-05-21T22:38:13.594Z,4.44
2017-05-21T22:40:39.938Z,4.42
2017-05-21T22:43:06.271Z,4.30
2017-05-21T22:45:32.612Z,4.54
2017-05-21T22:47:59.106Z,4.66
2017-05-21T22:50:25.923Z,8.16
2017-05-21T22:52:52.814Z,4.82
2017-05-21T22:55:19.693Z,5.38
2017-05-21T22:57:46.518Z,5.26
2017-05-21T23:00:13.243Z,5.40
2017-05-21T23:02:40.095Z,6.72
2017-05-21T23:05:08.421Z,7.60
2017-05-21T23:07:34.933Z,6.54
2017-05-21T23:10:01.898Z,5.60
2017-05-21T23:12:28.428Z,6.48
2017-05-21T23:14:55.128Z,5.50
2017-05-21T23:17:21.493Z,5.52
2017-05-21T23:19:47.858Z,5.50
2017-05-21T23:22:14.551Z,5.62
2017-05-21T23:24:41.128Z,5.32
2017-05-21T23:27:07.491Z,6.10
2017-05-21T23:29:33.899Z,5.48
2017-05-21T23:32:00.265Z,5.00
2017-05-21T23:34:26.637Z,5.04
2017-05-21T23:36:53.012Z,5.16
2017-05-21T23:39:19.385Z,6.22
2017-05-21T23:41:45.742Z,6.18
2017-05-21T23:44:12.096Z,5.64
2017-05-21T23:46:38.482Z,6.62
2017-05-21T23:49:04.842Z,8.56
2017-05-21T23:51:31.222Z,6.62
2017-05-21T23:53:57.613Z,6.74
2017-05-21T23:56:23.982Z,5.86
2017-05-21T23:58:50.784Z,6.26
